sensor_id;sensor_type;location;lat;lon;timestamp;P1;durP1;ratioP1;P2;durP2;ratioP2
19032;SDS011;9649;51.042;13.804;2024-01-15T00:00:30;11.03;;;5.50;;
19032;SDS011;9649;51.042;13.804;2024-01-15T00:05:54;12.20;;;5.23;;
19032;SDS011;9649;51.042;13.804;2024-01-15T00:11:12;13.77;;;5.70;;
19032;SDS011;9649;51.042;13.804;2024-01-15T00:16:52;12.40;;;5.73;;
19032;SDS011;9649;51.042;13.804;2024-01-15T00:22:26;13.33;;;5.93;;
19032;SDS011;9649;51.042;13.804;2024-01-15T00:34:00;17.90;;;6.73;;
19032;SDS011;9649;51.042;13.804;2024-01-15T00:39:16;15.77;;;6.77;;
19032;SDS011;9649;51.042;13.804;2024-01-15T00:44:38;15.17;;;6.67;;
19032;SDS011;9649;51.042;13.804;2024-01-15T00:56:32;14.03;;;5.50;;
19032;SDS011;9649;51.042;13.804;2024-01-15T01:02:25;12.13;;;5.50;;
19032;SDS011;9649;51.042;13.804;2024-01-15T01:08:05;13.10;;;6.00;;
19032;SDS011;9649;51.042;13.804;2024-01-15T01:13:11;10.93;;;5.50;;
19032;SDS011;9649;51.042;13.804;2024-01-15T01:18:40;13.77;;;6.13;;
19032;SDS011;9649;51.042;13.804;2024-01-15T01:23:49;14.40;;;5.97;;
19032;SDS011;9649;51.042;13.804;2024-01-15T01:28:57;13.97;;;6.30;;
19032;SDS011;9649;51.042;13.804;2024-01-15T01:34:16;11.77;;;5.80;;
19032;SDS011;9649;51.042;13.804;2024-01-15T01:39:27;13.07;;;5.90;;
19032;SDS011;9649;51.042;13.804;2024-01-15T01:44:36;12.60;;;5.83;;
19032;SDS011;9649;51.042;13.804;2024-01-15T01:49:50;13.10;;;6.63;;
19032;SDS011;9649;51.042;13.804;2024-01-15T01:55:14;14.43;;;6.70;;
19032;SDS011;9649;51.042;13.804;2024-01-15T02:00:52;15.90;;;6.77;;
19032;SDS011;9649;51.042;13.804;2024-01-15T02:11:38;14.67;;;7.00;;
19032;SDS011;9649;51.042;13.804;2024-01-15T02:17:02;13.90;;;6.70;;
19032;SDS011;9649;51.042;13.804;2024-01-15T02:22:20;16.53;;;7.10;;
19032;SDS011;9649;51.042;13.804;2024-01-15T02:27:43;13.83;;;6.43;;
19032;SDS011;9649;51.042;13.804;2024-01-15T02:33:10;18.07;;;7.40;;
19032;SDS011;9649;51.042;13.804;2024-01-15T02:38:46;14.73;;;7.00;;
19032;SDS011;9649;51.042;13.804;2024-01-15T02:44:08;16.90;;;7.20;;
19032;SDS011;9649;51.042;13.804;2024-01-15T02:49:37;14.37;;;7.03;;
19032;SDS011;9649;51.042;13.804;2024-01-15T02:54:57;14.87;;;6.67;;
19032;SDS011;9649;51.042;13.804;2024-01-15T03:05:32;14.33;;;7.20;;
19032;SDS011;9649;51.042;13.804;2024-01-15T03:10:48;15.97;;;7.27;;
19032;SDS011;9649;51.042;13.804;2024-01-15T03:16:25;19.87;;;7.73;;
19032;SDS011;9649;51.042;13.804;2024-01-15T03:22:04;13.33;;;6.43;;
19032;SDS011;9649;51.042;13.804;2024-01-15T03:27:11;13.80;;;7.03;;
19032;SDS011;9649;51.042;13.804;2024-01-15T03:32:18;16.20;;;7.00;;
19032;SDS011;9649;51.042;13.804;2024-01-15T03:37:25;15.47;;;7.03;;
19032;SDS011;9649;51.042;13.804;2024-01-15T03:42:42;15.77;;;7.10;;
19032;SDS011;9649;51.042;13.804;2024-01-15T03:48:16;16.23;;;7.33;;
19032;SDS011;9649;51.042;13.804;2024-01-15T03:53:27;18.10;;;8.00;;
19032;SDS011;9649;51.042;13.804;2024-01-15T03:58:39;17.33;;;7.83;;
19032;SDS011;9649;51.042;13.804;2024-01-15T04:04:03;16.53;;;7.90;;
19032;SDS011;9649;51.042;13.804;2024-01-15T04:09:17;16.40;;;7.03;;
19032;SDS011;9649;51.042;13.804;2024-01-15T04:14:25;22.50;;;8.90;;
19032;SDS011;9649;51.042;13.804;2024-01-15T04:19:38;17.03;;;8.03;;
19032;SDS011;9649;51.042;13.804;2024-01-15T04:24:47;15.63;;;7.30;;
19032;SDS011;9649;51.042;13.804;2024-01-15T04:29:55;19.10;;;8.53;;
19032;SDS011;9649;51.042;13.804;2024-01-15T04:35:01;14.50;;;7.57;;
19032;SDS011;9649;51.042;13.804;2024-01-15T04:40:31;19.23;;;7.20;;
19032;SDS011;9649;51.042;13.804;2024-01-15T04:45:37;17.93;;;7.47;;
19032;SDS011;9649;51.042;13.804;2024-01-15T04:50:47;17.70;;;7.50;;
19032;SDS011;9649;51.042;13.804;2024-01-15T04:55:56;18.73;;;8.00;;
19032;SDS011;9649;51.042;13.804;2024-01-15T05:01:07;16.17;;;7.10;;
19032;SDS011;9649;51.042;13.804;2024-01-15T05:06:18;16.60;;;7.43;;
19032;SDS011;9649;51.042;13.804;2024-01-15T05:11:24;16.33;;;7.60;;
19032;SDS011;9649;51.042;13.804;2024-01-15T05:16:44;17.53;;;7.33;;
19032;SDS011;9649;51.042;13.804;2024-01-15T05:22:09;18.50;;;8.10;;
19032;SDS011;9649;51.042;13.804;2024-01-15T05:27:26;19.83;;;7.50;;
19032;SDS011;9649;51.042;13.804;2024-01-15T05:32:46;20.33;;;8.30;;
19032;SDS011;9649;51.042;13.804;2024-01-15T05:49:33;17.57;;;7.57;;
19032;SDS011;9649;51.042;13.804;2024-01-15T05:54:42;20.13;;;7.37;;
19032;SDS011;9649;51.042;13.804;2024-01-15T06:05:46;19.17;;;7.73;;
19032;SDS011;9649;51.042;13.804;2024-01-15T06:11:02;17.60;;;7.97;;
19032;SDS011;9649;51.042;13.804;2024-01-15T06:16:14;20.13;;;7.67;;
19032;SDS011;9649;51.042;13.804;2024-01-15T06:21:17;15.63;;;6.63;;
19032;SDS011;9649;51.042;13.804;2024-01-15T06:26:20;15.63;;;6.60;;
19032;SDS011;9649;51.042;13.804;2024-01-15T06:31:25;15.23;;;6.90;;
19032;SDS011;9649;51.042;13.804;2024-01-15T06:36:28;16.53;;;6.67;;
19032;SDS011;9649;51.042;13.804;2024-01-15T06:41:31;15.37;;;6.43;;
19032;SDS011;9649;51.042;13.804;2024-01-15T06:46:35;16.70;;;6.13;;
19032;SDS011;9649;51.042;13.804;2024-01-15T06:51:38;18.37;;;7.00;;
19032;SDS011;9649;51.042;13.804;2024-01-15T06:56:41;15.40;;;6.30;;
19032;SDS011;9649;51.042;13.804;2024-01-15T07:01:45;15.57;;;6.37;;
19032;SDS011;9649;51.042;13.804;2024-01-15T07:06:48;12.70;;;6.00;;
19032;SDS011;9649;51.042;13.804;2024-01-15T07:11:50;12.63;;;5.53;;
19032;SDS011;9649;51.042;13.804;2024-01-15T07:16:55;15.57;;;5.53;;
19032;SDS011;9649;51.042;13.804;2024-01-15T07:21:58;12.73;;;5.57;;
19032;SDS011;9649;51.042;13.804;2024-01-15T07:27:01;13.93;;;6.20;;
19032;SDS011;9649;51.042;13.804;2024-01-15T07:32:07;14.97;;;6.27;;
19032;SDS011;9649;51.042;13.804;2024-01-15T07:37:09;14.80;;;5.50;;
19032;SDS011;9649;51.042;13.804;2024-01-15T07:42:12;11.37;;;5.23;;
19032;SDS011;9649;51.042;13.804;2024-01-15T07:47:18;12.10;;;5.57;;
19032;SDS011;9649;51.042;13.804;2024-01-15T07:52:21;13.60;;;5.83;;
19032;SDS011;9649;51.042;13.804;2024-01-15T07:57:24;12.57;;;5.80;;
19032;SDS011;9649;51.042;13.804;2024-01-15T08:02:28;12.53;;;5.50;;
19032;SDS011;9649;51.042;13.804;2024-01-15T08:07:34;14.63;;;6.00;;
19032;SDS011;9649;51.042;13.804;2024-01-15T08:12:37;14.87;;;5.93;;
19032;SDS011;9649;51.042;13.804;2024-01-15T08:17:41;12.47;;;5.60;;
19032;SDS011;9649;51.042;13.804;2024-01-15T08:22:44;15.70;;;5.50;;
19032;SDS011;9649;51.042;13.804;2024-01-15T08:27:47;13.40;;;5.77;;
19032;SDS011;9649;51.042;13.804;2024-01-15T08:32:52;13.27;;;5.33;;
19032;SDS011;9649;51.042;13.804;2024-01-15T08:37:55;10.83;;;4.83;;
19032;SDS011;9649;51.042;13.804;2024-01-15T08:42:59;13.60;;;5.50;;
19032;SDS011;9649;51.042;13.804;2024-01-15T08:48:04;11.27;;;5.00;;
19032;SDS011;9649;51.042;13.804;2024-01-15T08:53:07;11.10;;;4.53;;
19032;SDS011;9649;51.042;13.804;2024-01-15T08:58:10;9.00;;;4.17;;
19032;SDS011;9649;51.042;13.804;2024-01-15T09:03:14;15.00;;;5.03;;
19032;SDS011;9649;51.042;13.804;2024-01-15T09:08:17;10.33;;;4.60;;
19032;SDS011;9649;51.042;13.804;2024-01-15T09:13:20;11.87;;;4.33;;
19032;SDS011;9649;51.042;13.804;2024-01-15T09:18:24;9.77;;;4.43;;
19032;SDS011;9649;51.042;13.804;2024-01-15T09:23:27;8.53;;;4.03;;
19032;SDS011;9649;51.042;13.804;2024-01-15T09:28:30;9.53;;;4.23;;
19032;SDS011;9649;51.042;13.804;2024-01-15T09:33:34;8.90;;;3.50;;
19032;SDS011;9649;51.042;13.804;2024-01-15T09:38:37;12.00;;;4.10;;
19032;SDS011;9649;51.042;13.804;2024-01-15T09:43:39;10.00;;;3.80;;
19032;SDS011;9649;51.042;13.804;2024-01-15T09:48:44;8.87;;;3.77;;
19032;SDS011;9649;51.042;13.804;2024-01-15T09:53:47;10.80;;;3.83;;
19032;SDS011;9649;51.042;13.804;2024-01-15T09:58:52;8.93;;;3.80;;
19032;SDS011;9649;51.042;13.804;2024-01-15T10:03:56;10.73;;;4.10;;
19032;SDS011;9649;51.042;13.804;2024-01-15T10:09:00;10.27;;;3.90;;
19032;SDS011;9649;51.042;13.804;2024-01-15T10:14:04;10.77;;;3.90;;
19032;SDS011;9649;51.042;13.804;2024-01-15T10:19:09;8.23;;;3.97;;
19032;SDS011;9649;51.042;13.804;2024-01-15T10:24:12;6.87;;;3.23;;
19032;SDS011;9649;51.042;13.804;2024-01-15T10:29:14;9.03;;;4.43;;
19032;SDS011;9649;51.042;13.804;2024-01-15T10:34:18;8.07;;;3.73;;
19032;SDS011;9649;51.042;13.804;2024-01-15T10:39:22;6.53;;;3.27;;
19032;SDS011;9649;51.042;13.804;2024-01-15T10:44:25;6.63;;;3.30;;
19032;SDS011;9649;51.042;13.804;2024-01-15T10:49:29;7.97;;;3.50;;
19032;SDS011;9649;51.042;13.804;2024-01-15T10:54:34;10.00;;;3.83;;
19032;SDS011;9649;51.042;13.804;2024-01-15T10:59:39;9.13;;;3.80;;
19032;SDS011;9649;51.042;13.804;2024-01-15T11:04:43;7.63;;;3.50;;
19032;SDS011;9649;51.042;13.804;2024-01-15T11:09:46;15.50;;;4.47;;
19032;SDS011;9649;51.042;13.804;2024-01-15T11:14:50;7.93;;;3.30;;
19032;SDS011;9649;51.042;13.804;2024-01-15T11:19:57;9.77;;;3.87;;
19032;SDS011;9649;51.042;13.804;2024-01-15T11:25:01;8.10;;;3.53;;
19032;SDS011;9649;51.042;13.804;2024-01-15T11:30:07;7.73;;;3.73;;
19032;SDS011;9649;51.042;13.804;2024-01-15T11:35:13;9.50;;;4.10;;
19032;SDS011;9649;51.042;13.804;2024-01-15T11:40:39;9.57;;;3.73;;
19032;SDS011;9649;51.042;13.804;2024-01-15T11:45:44;7.90;;;3.80;;
19032;SDS011;9649;51.042;13.804;2024-01-15T11:50:49;9.10;;;3.93;;
19032;SDS011;9649;51.042;13.804;2024-01-15T11:55:55;7.87;;;4.13;;
19032;SDS011;9649;51.042;13.804;2024-01-15T12:01:00;8.27;;;4.17;;
19032;SDS011;9649;51.042;13.804;2024-01-15T12:06:05;7.40;;;3.37;;
19032;SDS011;9649;51.042;13.804;2024-01-15T12:11:10;7.60;;;3.90;;
19032;SDS011;9649;51.042;13.804;2024-01-15T12:16:17;8.20;;;3.80;;
19032;SDS011;9649;51.042;13.804;2024-01-15T12:21:20;11.07;;;4.03;;
19032;SDS011;9649;51.042;13.804;2024-01-15T12:26:24;8.27;;;3.53;;
19032;SDS011;9649;51.042;13.804;2024-01-15T12:31:26;6.60;;;3.63;;
19032;SDS011;9649;51.042;13.804;2024-01-15T12:36:30;8.43;;;3.80;;
19032;SDS011;9649;51.042;13.804;2024-01-15T12:41:34;7.87;;;3.77;;
19032;SDS011;9649;51.042;13.804;2024-01-15T12:46:37;9.57;;;4.00;;
19032;SDS011;9649;51.042;13.804;2024-01-15T12:51:40;8.97;;;4.20;;
19032;SDS011;9649;51.042;13.804;2024-01-15T12:56:44;11.73;;;4.10;;
19032;SDS011;9649;51.042;13.804;2024-01-15T13:01:46;10.00;;;3.97;;
19032;SDS011;9649;51.042;13.804;2024-01-15T13:06:49;8.77;;;4.40;;
19032;SDS011;9649;51.042;13.804;2024-01-15T13:11:54;9.43;;;3.93;;
19032;SDS011;9649;51.042;13.804;2024-01-15T13:16:57;10.50;;;4.43;;
19032;SDS011;9649;51.042;13.804;2024-01-15T13:22:00;8.90;;;3.83;;
19032;SDS011;9649;51.042;13.804;2024-01-15T13:27:06;8.10;;;4.03;;
19032;SDS011;9649;51.042;13.804;2024-01-15T13:32:09;7.53;;;3.60;;
19032;SDS011;9649;51.042;13.804;2024-01-15T13:37:18;10.47;;;4.23;;
19032;SDS011;9649;51.042;13.804;2024-01-15T13:42:22;10.97;;;4.67;;
19032;SDS011;9649;51.042;13.804;2024-01-15T13:47:27;10.27;;;4.57;;
19032;SDS011;9649;51.042;13.804;2024-01-15T13:52:30;10.70;;;4.80;;
19032;SDS011;9649;51.042;13.804;2024-01-15T13:57:34;11.13;;;4.80;;
19032;SDS011;9649;51.042;13.804;2024-01-15T14:02:37;13.30;;;4.87;;
19032;SDS011;9649;51.042;13.804;2024-01-15T14:07:39;10.03;;;4.63;;
19032;SDS011;9649;51.042;13.804;2024-01-15T14:12:44;10.53;;;4.93;;
19032;SDS011;9649;51.042;13.804;2024-01-15T14:17:47;12.10;;;5.07;;
19032;SDS011;9649;51.042;13.804;2024-01-15T14:22:50;10.87;;;4.70;;
19032;SDS011;9649;51.042;13.804;2024-01-15T14:27:54;14.07;;;4.70;;
19032;SDS011;9649;51.042;13.804;2024-01-15T14:32:56;9.80;;;4.77;;
19032;SDS011;9649;51.042;13.804;2024-01-15T14:37:59;9.63;;;4.53;;
19032;SDS011;9649;51.042;13.804;2024-01-15T14:43:03;13.30;;;5.00;;
19032;SDS011;9649;51.042;13.804;2024-01-15T14:48:07;11.33;;;5.07;;
19032;SDS011;9649;51.042;13.804;2024-01-15T14:53:10;12.00;;;5.23;;
19032;SDS011;9649;51.042;13.804;2024-01-15T14:58:14;12.60;;;5.23;;
19032;SDS011;9649;51.042;13.804;2024-01-15T15:03:17;12.90;;;5.53;;
19032;SDS011;9649;51.042;13.804;2024-01-15T15:08:20;16.73;;;5.70;;
19032;SDS011;9649;51.042;13.804;2024-01-15T15:13:24;13.37;;;6.60;;
19032;SDS011;9649;51.042;13.804;2024-01-15T15:18:44;12.83;;;5.97;;
19032;SDS011;9649;51.042;13.804;2024-01-15T15:23:48;13.00;;;6.43;;
19032;SDS011;9649;51.042;13.804;2024-01-15T15:28:55;11.70;;;5.87;;
19032;SDS011;9649;51.042;13.804;2024-01-15T15:33:57;17.07;;;6.80;;
19032;SDS011;9649;51.042;13.804;2024-01-15T15:39:00;16.70;;;6.47;;
19032;SDS011;9649;51.042;13.804;2024-01-15T15:44:04;15.53;;;6.17;;
19032;SDS011;9649;51.042;13.804;2024-01-15T15:49:07;11.77;;;6.07;;
19032;SDS011;9649;51.042;13.804;2024-01-15T15:54:10;15.77;;;6.40;;
19032;SDS011;9649;51.042;13.804;2024-01-15T15:59:15;16.23;;;6.77;;
19032;SDS011;9649;51.042;13.804;2024-01-15T16:04:19;13.80;;;6.27;;
19032;SDS011;9649;51.042;13.804;2024-01-15T16:09:22;12.70;;;5.77;;
19032;SDS011;9649;51.042;13.804;2024-01-15T16:14:26;14.20;;;5.80;;
19032;SDS011;9649;51.042;13.804;2024-01-15T16:19:29;14.53;;;5.87;;
19032;SDS011;9649;51.042;13.804;2024-01-15T16:24:52;12.50;;;5.80;;
19032;SDS011;9649;51.042;13.804;2024-01-15T16:30:00;14.63;;;6.33;;
19032;SDS011;9649;51.042;13.804;2024-01-15T16:35:05;12.00;;;5.70;;
19032;SDS011;9649;51.042;13.804;2024-01-15T16:40:09;12.83;;;5.70;;
19032;SDS011;9649;51.042;13.804;2024-01-15T16:45:14;16.80;;;6.27;;
19032;SDS011;9649;51.042;13.804;2024-01-15T16:50:17;10.63;;;5.43;;
19032;SDS011;9649;51.042;13.804;2024-01-15T16:55:19;12.90;;;5.80;;
19032;SDS011;9649;51.042;13.804;2024-01-15T17:00:24;13.40;;;5.83;;
19032;SDS011;9649;51.042;13.804;2024-01-15T17:05:27;17.73;;;6.57;;
19032;SDS011;9649;51.042;13.804;2024-01-15T17:10:30;15.57;;;6.97;;
19032;SDS011;9649;51.042;13.804;2024-01-15T17:15:35;17.73;;;7.87;;
19032;SDS011;9649;51.042;13.804;2024-01-15T17:20:39;16.37;;;7.40;;
19032;SDS011;9649;51.042;13.804;2024-01-15T17:25:45;15.60;;;7.73;;
19032;SDS011;9649;51.042;13.804;2024-01-15T17:30:49;13.03;;;6.93;;
19032;SDS011;9649;51.042;13.804;2024-01-15T17:35:52;15.27;;;7.00;;
19032;SDS011;9649;51.042;13.804;2024-01-15T17:40:57;13.27;;;6.17;;
19032;SDS011;9649;51.042;13.804;2024-01-15T17:46:01;11.93;;;5.70;;
19032;SDS011;9649;51.042;13.804;2024-01-15T17:51:05;11.47;;;5.30;;
19032;SDS011;9649;51.042;13.804;2024-01-15T17:56:08;8.20;;;4.60;;
19032;SDS011;9649;51.042;13.804;2024-01-15T18:01:12;11.60;;;4.73;;
19032;SDS011;9649;51.042;13.804;2024-01-15T18:06:15;9.27;;;4.93;;
19032;SDS011;9649;51.042;13.804;2024-01-15T18:11:18;8.17;;;4.73;;
19032;SDS011;9649;51.042;13.804;2024-01-15T18:16:23;11.07;;;5.20;;
19032;SDS011;9649;51.042;13.804;2024-01-15T18:21:25;9.67;;;5.57;;
19032;SDS011;9649;51.042;13.804;2024-01-15T18:26:28;11.13;;;5.67;;
19032;SDS011;9649;51.042;13.804;2024-01-15T18:31:32;10.60;;;5.77;;
19032;SDS011;9649;51.042;13.804;2024-01-15T18:36:35;9.20;;;5.43;;
19032;SDS011;9649;51.042;13.804;2024-01-15T18:41:38;10.87;;;5.77;;
19032;SDS011;9649;51.042;13.804;2024-01-15T18:46:42;13.40;;;5.57;;
19032;SDS011;9649;51.042;13.804;2024-01-15T18:51:46;11.47;;;5.40;;
19032;SDS011;9649;51.042;13.804;2024-01-15T18:56:54;12.63;;;6.00;;
19032;SDS011;9649;51.042;13.804;2024-01-15T19:01:58;13.27;;;6.37;;
19032;SDS011;9649;51.042;13.804;2024-01-15T19:12:53;18.13;;;8.10;;
19032;SDS011;9649;51.042;13.804;2024-01-15T19:17:57;13.90;;;7.10;;
19032;SDS011;9649;51.042;13.804;2024-01-15T19:23:00;16.43;;;7.57;;
19032;SDS011;9649;51.042;13.804;2024-01-15T19:28:03;19.07;;;8.23;;
19032;SDS011;9649;51.042;13.804;2024-01-15T19:33:09;13.73;;;7.17;;
19032;SDS011;9649;51.042;13.804;2024-01-15T19:38:12;12.20;;;6.70;;
19032;SDS011;9649;51.042;13.804;2024-01-15T19:43:22;13.77;;;7.00;;
19032;SDS011;9649;51.042;13.804;2024-01-15T19:48:31;13.13;;;6.87;;
19032;SDS011;9649;51.042;13.804;2024-01-15T19:53:35;14.53;;;7.03;;
19032;SDS011;9649;51.042;13.804;2024-01-15T19:58:38;13.37;;;6.80;;
19032;SDS011;9649;51.042;13.804;2024-01-15T20:03:43;11.13;;;5.87;;
19032;SDS011;9649;51.042;13.804;2024-01-15T20:08:58;10.80;;;5.53;;
19032;SDS011;9649;51.042;13.804;2024-01-15T20:20:02;9.90;;;4.77;;
19032;SDS011;9649;51.042;13.804;2024-01-15T20:25:39;8.00;;;4.67;;
19032;SDS011;9649;51.042;13.804;2024-01-15T20:30:47;10.27;;;4.90;;
19032;SDS011;9649;51.042;13.804;2024-01-15T20:41:46;7.63;;;3.50;;
19032;SDS011;9649;51.042;13.804;2024-01-15T20:46:49;8.10;;;3.53;;
19032;SDS011;9649;51.042;13.804;2024-01-15T20:51:53;8.90;;;3.40;;
19032;SDS011;9649;51.042;13.804;2024-01-15T20:56:56;7.90;;;3.10;;
19032;SDS011;9649;51.042;13.804;2024-01-15T21:02:02;5.33;;;3.03;;
19032;SDS011;9649;51.042;13.804;2024-01-15T21:07:06;6.30;;;3.17;;
19032;SDS011;9649;51.042;13.804;2024-01-15T21:12:09;7.53;;;4.70;;
19032;SDS011;9649;51.042;13.804;2024-01-15T21:17:12;7.77;;;4.20;;
19032;SDS011;9649;51.042;13.804;2024-01-15T21:22:16;7.90;;;3.50;;
19032;SDS011;9649;51.042;13.804;2024-01-15T21:27:20;9.17;;;3.80;;
19032;SDS011;9649;51.042;13.804;2024-01-15T21:32:28;6.30;;;3.53;;
19032;SDS011;9649;51.042;13.804;2024-01-15T21:37:32;6.40;;;3.20;;
19032;SDS011;9649;51.042;13.804;2024-01-15T21:43:10;5.13;;;3.03;;
19032;SDS011;9649;51.042;13.804;2024-01-15T21:48:16;4.13;;;2.63;;
19032;SDS011;9649;51.042;13.804;2024-01-15T21:53:20;4.67;;;2.50;;
19032;SDS011;9649;51.042;13.804;2024-01-15T21:58:26;3.80;;;2.50;;
19032;SDS011;9649;51.042;13.804;2024-01-15T22:03:48;4.77;;;2.50;;
19032;SDS011;9649;51.042;13.804;2024-01-15T22:08:54;3.67;;;2.33;;
19032;SDS011;9649;51.042;13.804;2024-01-15T22:13:59;3.50;;;2.60;;
19032;SDS011;9649;51.042;13.804;2024-01-15T22:19:02;4.60;;;2.50;;
19032;SDS011;9649;51.042;13.804;2024-01-15T22:24:06;4.90;;;2.30;;
19032;SDS011;9649;51.042;13.804;2024-01-15T22:29:09;2.57;;;2.10;;
19032;SDS011;9649;51.042;13.804;2024-01-15T22:34:12;2.90;;;2.00;;
19032;SDS011;9649;51.042;13.804;2024-01-15T22:39:20;5.33;;;1.80;;
19032;SDS011;9649;51.042;13.804;2024-01-15T22:44:23;3.17;;;1.80;;
19032;SDS011;9649;51.042;13.804;2024-01-15T22:49:26;3.30;;;2.20;;
19032;SDS011;9649;51.042;13.804;2024-01-15T22:54:32;6.10;;;2.87;;
19032;SDS011;9649;51.042;13.804;2024-01-15T22:59:35;5.17;;;3.10;;
19032;SDS011;9649;51.042;13.804;2024-01-15T23:04:39;8.43;;;4.10;;
19032;SDS011;9649;51.042;13.804;2024-01-15T23:09:44;10.27;;;3.63;;
19032;SDS011;9649;51.042;13.804;2024-01-15T23:14:48;7.77;;;2.83;;
19032;SDS011;9649;51.042;13.804;2024-01-15T23:19:52;6.90;;;2.93;;
19032;SDS011;9649;51.042;13.804;2024-01-15T23:24:57;10.23;;;3.77;;
19032;SDS011;9649;51.042;13.804;2024-01-15T23:30:00;8.77;;;3.70;;
19032;SDS011;9649;51.042;13.804;2024-01-15T23:35:05;8.43;;;3.40;;
19032;SDS011;9649;51.042;13.804;2024-01-15T23:40:10;12.03;;;3.40;;
19032;SDS011;9649;51.042;13.804;2024-01-15T23:45:13;12.40;;;2.83;;
19032;SDS011;9649;51.042;13.804;2024-01-15T23:50:16;6.67;;;2.23;;
19032;SDS011;9649;51.042;13.804;2024-01-15T23:55:20;5.60;;;2.20;;
